Bush, Kentucky
Current Conditions -  °F | °C
As of 8:53 AM on Friday 31 Oct 2014 (Local Time) from KLOZ Reporting Station
Light Rain Light Rain  
Wind Chill: 43°   Ceiling: 4900
Heat Index: 43°   Visibility: 6mi
Dew Point: 39°   Wind: 3mph
Humidity: 86%   Direction: 240°WSW
Pressure: 29.99"   Gusts: NA
Location:  37.09°N, 83.87°W
Report Text: KLOZ 311253Z AUTO 24003KT 6SM -RA BR OVC049 06/04 A2999 RMK AO2 RAB21 SLP157 P0000 T00610039
Loading
Personal Weather Stations






























Interactive Weather Map New forecast layout! Learn more

10-Day Weather Forecast

Advertisements
Track Severe Weather on mobile